createdAt,value
2024-01-20T00:00:46.505Z,97975.77
2024-01-20T00:03:34.755Z,97972.02
2024-01-20T00:06:03.334Z,97972.90
2024-01-20T00:08:33.112Z,97972.40
2024-01-20T00:11:01.588Z,97969.91
2024-01-20T00:13:30.704Z,97976.42
2024-01-20T00:16:00.448Z,97980.81
2024-01-20T00:18:29.217Z,97990.38
2024-01-20T00:20:57.958Z,98003.28
2024-01-20T00:23:26.779Z,98005.34
2024-01-20T00:25:55.224Z,98007.88
2024-01-20T00:28:23.709Z,98012.11
2024-01-20T00:30:55.101Z,98016.11
2024-01-20T00:33:23.854Z,98021.95
2024-01-20T00:35:52.598Z,98022.84
2024-01-20T00:38:20.948Z,98026.73
2024-01-20T00:40:49.382Z,98040.20
2024-01-20T00:43:23.228Z,98044.52
2024-01-20T00:45:52.788Z,98039.83
2024-01-20T00:48:21.593Z,98041.73
2024-01-20T00:50:49.850Z,98038.34
2024-01-20T00:53:18.241Z,98043.59
2024-01-20T00:55:47.257Z,98047.69
2024-01-20T00:58:15.535Z,98053.17
2024-01-20T01:00:44.014Z,98065.64
2024-01-20T01:03:12.456Z,98073.48
2024-01-20T01:05:40.816Z,98081.64
2024-01-20T01:08:14.169Z,98086.17
2024-01-20T01:10:43.281Z,98090.91
2024-01-20T01:13:11.680Z,98091.95
2024-01-20T01:15:39.914Z,98091.79
2024-01-20T01:18:10.048Z,98087.27
2024-01-20T01:20:38.357Z,98084.80
2024-01-20T01:23:06.758Z,98083.40
2024-01-20T01:25:35.148Z,98083.58
2024-01-20T01:28:03.865Z,98079.92
2024-01-20T01:30:32.854Z,98080.15
2024-01-20T01:33:01.214Z,98085.85
2024-01-20T01:35:29.781Z,98089.07
2024-01-20T01:38:15.026Z,98090.23
2024-01-20T01:40:59.783Z,98095.67
2024-01-20T01:43:30.734Z,98104.69
2024-01-20T01:46:06.159Z,98113.14
2024-01-20T01:48:35.240Z,98117.19
2024-01-20T01:51:05.678Z,98117.14
2024-01-20T01:53:35.495Z,98122.51
2024-01-20T01:56:06.363Z,98129.55
2024-01-20T01:58:34.649Z,98134.39
2024-01-20T02:01:03.042Z,98137.42
2024-01-20T02:03:31.667Z,98149.29
2024-01-20T02:06:00.141Z,98155.17
2024-01-20T02:08:29.450Z,98161.00
2024-01-20T02:10:58.850Z,98161.74
2024-01-20T02:13:27.144Z,98161.49
2024-01-20T02:15:55.753Z,98162.23
2024-01-20T02:18:24.266Z,98170.23
2024-01-20T02:20:52.823Z,98175.11
2024-01-20T02:23:21.609Z,98181.91
2024-01-20T02:25:49.841Z,98183.75
2024-01-20T02:28:18.203Z,98183.93
2024-01-20T02:30:48.062Z,98190.14
2024-01-20T02:33:16.585Z,98194.27
2024-01-20T02:35:45.118Z,98199.85
2024-01-20T02:38:13.592Z,98205.55
2024-01-20T02:40:41.817Z,98209.53
2024-01-20T02:43:10.113Z,98212.76
2024-01-20T02:45:38.429Z,98212.95
2024-01-20T02:48:07.471Z,98213.57
2024-01-20T02:50:35.954Z,98212.63
2024-01-20T02:53:04.387Z,98213.20
2024-01-20T02:55:33.743Z,98219.34
2024-01-20T02:58:02.380Z,98222.05
2024-01-20T03:00:30.651Z,98223.30
2024-01-20T03:02:59.013Z,98228.20
2024-01-20T03:05:27.430Z,98239.65
2024-01-20T03:07:56.019Z,98247.95
2024-01-20T03:10:24.510Z,98253.36
2024-01-20T03:12:52.864Z,98256.20
2024-01-20T03:15:21.333Z,98254.59
2024-01-20T03:17:49.691Z,98256.27
2024-01-20T03:20:18.011Z,98260.98
2024-01-20T03:22:46.179Z,98264.23
2024-01-20T03:25:14.789Z,98265.91
2024-01-20T03:27:43.160Z,98262.59
2024-01-20T03:30:11.926Z,98263.89
2024-01-20T03:32:40.275Z,98269.80
2024-01-20T03:35:09.121Z,98274.65
2024-01-20T03:37:37.360Z,98274.05
2024-01-20T03:40:06.057Z,98281.42
2024-01-20T03:42:34.501Z,98285.70
2024-01-20T03:45:03.182Z,98289.58
2024-01-20T03:47:33.210Z,98294.48
2024-01-20T03:50:05.280Z,98296.04
2024-01-20T03:52:33.864Z,98297.63
2024-01-20T03:55:02.245Z,98305.21
2024-01-20T03:57:30.597Z,98310.52
2024-01-20T03:59:59.370Z,98315.05
2024-01-20T04:02:29.087Z,98318.59
2024-01-20T04:04:57.586Z,98321.48
2024-01-20T04:07:26.168Z,98326.90
2024-01-20T04:09:54.522Z,98336.75
2024-01-20T04:12:22.836Z,98340.16
2024-01-20T04:14:51.194Z,98345.23
2024-01-20T04:17:19.630Z,98346.11
2024-01-20T04:19:47.892Z,98349.33
2024-01-20T04:22:16.105Z,98350.61
2024-01-20T04:24:44.264Z,98354.91
2024-01-20T04:27:12.713Z,98360.10
2024-01-20T04:29:41.173Z,98365.26
2024-01-20T04:32:09.473Z,98371.48
2024-01-20T04:34:37.866Z,98371.83
2024-01-20T04:37:07.668Z,98380.02
2024-01-20T04:39:36.030Z,98386.25
2024-01-20T04:42:04.853Z,98390.50
2024-01-20T04:44:33.260Z,98393.65
2024-01-20T04:47:01.385Z,98401.02
2024-01-20T04:49:30.066Z,98410.27
2024-01-20T04:52:03.104Z,98412.52
2024-01-20T04:54:31.584Z,98415.71
2024-01-20T04:56:59.946Z,98415.05
2024-01-20T04:59:28.422Z,98417.88
2024-01-20T05:01:56.626Z,98421.39
2024-01-20T05:04:24.855Z,98432.12
2024-01-20T05:06:53.209Z,98438.83
2024-01-20T05:09:21.839Z,98446.33
2024-01-20T05:11:50.429Z,98452.08
2024-01-20T05:14:18.787Z,98454.39
2024-01-20T05:16:46.993Z,98456.95
2024-01-20T05:19:15.634Z,98453.73
2024-01-20T05:21:45.301Z,98451.73
2024-01-20T05:24:15.403Z,98449.23
2024-01-20T05:26:44.394Z,98448.91
2024-01-20T05:29:12.995Z,98451.33
2024-01-20T05:31:41.329Z,98454.15
2024-01-20T05:34:09.820Z,98456.86
2024-01-20T05:36:38.799Z,98462.58
2024-01-20T05:39:07.263Z,98465.60
2024-01-20T05:41:35.595Z,98464.40
2024-01-20T05:44:04.225Z,98466.13
2024-01-20T05:46:32.692Z,98474.65
2024-01-20T05:49:01.199Z,98474.81
2024-01-20T05:51:29.737Z,98468.64
2024-01-20T05:53:58.605Z,98472.45
2024-01-20T05:56:27.033Z,98483.35
2024-01-20T05:58:55.151Z,98487.17
2024-01-20T06:01:23.530Z,98494.28
2024-01-20T06:03:52.117Z,98499.73
2024-01-20T06:06:20.525Z,98505.13
2024-01-20T06:08:48.880Z,98511.39
2024-01-20T06:11:17.094Z,98514.48
2024-01-20T06:13:45.432Z,98517.38
2024-01-20T06:16:14.304Z,98522.86
2024-01-20T06:18:42.702Z,98528.67
2024-01-20T06:21:10.924Z,98529.81
2024-01-20T06:23:39.491Z,98532.13
2024-01-20T06:26:07.631Z,98535.84
2024-01-20T06:28:35.790Z,98538.62
2024-01-20T06:31:04.431Z,98545.80
2024-01-20T06:33:32.838Z,98552.02
2024-01-20T06:36:01.301Z,98557.36
2024-01-20T06:38:29.690Z,98558.70
2024-01-20T06:40:58.122Z,98559.98
2024-01-20T06:43:26.555Z,98558.41
2024-01-20T06:45:54.887Z,98561.23
2024-01-20T06:48:23.207Z,98566.77
2024-01-20T06:50:51.650Z,98575.33
2024-01-20T06:53:19.854Z,98579.08
2024-01-20T06:55:48.127Z,98579.92
2024-01-20T06:58:16.483Z,98583.52
2024-01-20T07:00:44.876Z,98586.19
2024-01-20T07:03:13.622Z,98589.90
2024-01-20T07:05:42.890Z,98592.63
2024-01-20T07:08:11.782Z,98603.13
2024-01-20T07:10:40.408Z,98606.90
2024-01-20T07:13:10.708Z,98605.48
2024-01-20T07:15:39.628Z,98608.23
2024-01-20T07:18:08.480Z,98608.25
2024-01-20T07:20:36.829Z,98609.20
2024-01-20T07:23:05.017Z,98615.13
2024-01-20T07:25:37.794Z,98623.81
2024-01-20T07:28:06.327Z,98630.55
2024-01-20T07:30:34.893Z,98638.10
2024-01-20T07:33:03.491Z,98642.78
2024-01-20T07:35:31.947Z,98643.15
2024-01-20T07:38:00.151Z,98643.56
2024-01-20T07:40:28.472Z,98646.70
2024-01-20T07:42:57.077Z,98650.80
2024-01-20T07:45:28.323Z,98656.86
2024-01-20T07:47:56.816Z,98659.15
2024-01-20T07:50:25.452Z,98662.95
2024-01-20T07:52:53.955Z,98661.98
2024-01-20T07:55:22.250Z,98662.84
2024-01-20T07:57:50.780Z,98666.71
2024-01-20T08:00:19.415Z,98665.64
2024-01-20T08:02:48.236Z,98665.86
2024-01-20T08:05:16.971Z,98666.91
2024-01-20T08:07:45.431Z,98673.98
2024-01-20T08:10:13.887Z,98682.24
2024-01-20T08:12:42.762Z,98686.30
2024-01-20T08:15:11.147Z,98689.23
2024-01-20T08:17:40.815Z,98693.64
2024-01-20T08:20:11.157Z,98698.34
2024-01-20T08:22:39.422Z,98707.33
2024-01-20T08:25:08.270Z,98713.77
2024-01-20T08:27:36.950Z,98719.84
2024-01-20T08:30:06.172Z,98723.10
2024-01-20T08:32:34.577Z,98730.09
2024-01-20T08:35:02.936Z,98736.07
2024-01-20T08:37:31.317Z,98742.49
2024-01-20T08:39:59.817Z,98741.58
2024-01-20T08:42:28.780Z,98743.85
2024-01-20T08:44:57.073Z,98750.21
2024-01-20T08:47:25.421Z,98746.85
2024-01-20T08:49:54.117Z,98749.78
2024-01-20T08:52:22.587Z,98750.33
2024-01-20T08:54:51.034Z,98754.83
2024-01-20T08:57:19.624Z,98751.98
2024-01-20T08:59:48.258Z,98758.67
2024-01-20T09:02:16.614Z,98763.98
2024-01-20T09:04:44.903Z,98759.21
2024-01-20T09:07:13.174Z,98757.23
2024-01-20T09:09:41.392Z,98755.89
2024-01-20T09:12:09.692Z,98757.89
2024-01-20T09:14:38.053Z,98761.13
2024-01-20T09:17:06.871Z,98761.23
2024-01-20T09:19:35.200Z,98760.86
2024-01-20T09:22:03.527Z,98761.91
2024-01-20T09:24:31.954Z,98761.17
2024-01-20T09:27:01.204Z,98763.91
2024-01-20T09:29:29.697Z,98762.79
2024-01-20T09:31:58.261Z,98761.70
2024-01-20T09:34:26.550Z,98760.31
2024-01-20T09:36:54.831Z,98763.92
2024-01-20T09:39:23.203Z,98759.58
2024-01-20T09:41:52.251Z,98755.97
2024-01-20T09:44:21.293Z,98752.84
2024-01-20T09:46:49.742Z,98747.50
2024-01-20T09:49:18.242Z,98747.04
2024-01-20T09:51:52.308Z,98747.13
2024-01-20T09:54:24.119Z,98746.20
2024-01-20T09:56:53.029Z,98747.55
2024-01-20T09:59:23.865Z,98748.13
2024-01-20T10:01:53.419Z,98751.96
2024-01-20T10:04:24.913Z,98750.48
2024-01-20T10:06:55.328Z,98756.55
2024-01-20T10:09:24.286Z,98753.06
2024-01-20T10:11:52.965Z,98746.20
2024-01-20T10:14:21.141Z,98749.04
2024-01-20T10:16:50.463Z,98751.82
2024-01-20T10:19:19.040Z,98755.02
2024-01-20T10:21:47.681Z,98757.72
2024-01-20T10:24:24.980Z,98751.85
2024-01-20T10:26:54.740Z,98749.31
2024-01-20T10:29:23.204Z,98746.02
2024-01-20T10:31:52.021Z,98741.38
2024-01-20T10:34:21.764Z,98739.50
2024-01-20T10:37:01.094Z,98739.72
2024-01-20T10:39:31.252Z,98738.77
2024-01-20T10:42:02.804Z,98734.27
2024-01-20T10:44:40.936Z,98730.11
2024-01-20T10:47:25.510Z,98731.24
2024-01-20T10:49:55.319Z,98732.88
2024-01-20T10:52:24.079Z,98736.44
2024-01-20T10:54:52.541Z,98737.54
2024-01-20T10:57:21.661Z,98737.19
2024-01-20T10:59:51.332Z,98738.34
2024-01-20T11:02:21.059Z,98743.09
2024-01-20T11:04:49.625Z,98740.14
2024-01-20T11:07:25.643Z,98732.50
2024-01-20T11:09:58.283Z,98733.27
2024-01-20T11:12:31.185Z,98735.43
2024-01-20T11:14:59.941Z,98734.85
2024-01-20T11:17:30.270Z,98731.69
2024-01-20T11:20:07.949Z,98726.12
2024-01-20T11:22:47.709Z,98724.88
2024-01-20T11:25:19.372Z,98725.60
2024-01-20T11:27:49.777Z,98728.88
2024-01-20T11:30:34.776Z,98730.88
2024-01-20T11:33:04.448Z,98728.95
2024-01-20T11:35:33.517Z,98725.29
2024-01-20T11:38:02.944Z,98722.76
2024-01-20T11:40:31.741Z,98714.37
2024-01-20T11:43:07.871Z,98713.09
2024-01-20T11:45:36.485Z,98710.27
2024-01-20T11:48:06.005Z,98712.40
2024-01-20T11:50:35.531Z,98712.38
2024-01-20T11:53:04.511Z,98716.69
2024-01-20T11:55:34.554Z,98720.52
2024-01-20T11:58:04.959Z,98723.42
2024-01-20T12:00:33.766Z,98730.52
2024-01-20T12:03:02.468Z,98730.66
2024-01-20T12:05:35.488Z,98732.60
2024-01-20T12:08:05.565Z,98732.77
2024-01-20T12:10:34.486Z,98737.86
2024-01-20T12:13:05.533Z,98739.86
2024-01-20T12:15:37.839Z,98742.27
2024-01-20T12:18:08.021Z,98742.86
2024-01-20T12:20:39.713Z,98738.83
2024-01-20T12:23:08.124Z,98737.48
2024-01-20T12:25:36.558Z,98743.61
2024-01-20T12:28:05.475Z,98744.95
2024-01-20T12:30:33.954Z,98744.71
2024-01-20T12:33:02.706Z,98749.90
2024-01-20T12:35:31.152Z,98747.45
2024-01-20T12:38:00.474Z,98746.48
2024-01-20T12:40:31.319Z,98743.36
2024-01-20T12:42:59.891Z,98748.45
2024-01-20T12:45:30.874Z,98750.34
2024-01-20T12:47:59.570Z,98753.69
2024-01-20T12:50:29.616Z,98752.90
2024-01-20T12:52:58.420Z,98754.48
2024-01-20T12:55:26.830Z,98756.11
2024-01-20T12:57:55.594Z,98757.34
2024-01-20T13:00:24.753Z,98757.89
2024-01-20T13:02:53.318Z,98759.24
2024-01-20T13:05:22.231Z,98763.76
2024-01-20T13:07:50.680Z,98767.83
2024-01-20T13:10:19.342Z,98768.11
2024-01-20T13:12:47.941Z,98766.96
2024-01-20T13:15:16.501Z,98768.45
2024-01-20T13:17:46.194Z,98765.66
2024-01-20T13:20:14.716Z,98769.08
2024-01-20T13:22:43.544Z,98771.58
2024-01-20T13:25:11.905Z,98773.23
2024-01-20T13:27:41.467Z,98770.42
2024-01-20T13:30:11.102Z,98767.40
2024-01-20T13:32:40.361Z,98770.47
2024-01-20T13:35:10.475Z,98769.83
2024-01-20T13:37:39.386Z,98767.91
2024-01-20T13:40:11.028Z,98770.09
2024-01-20T13:42:42.458Z,98771.70
2024-01-20T13:45:12.991Z,98773.16
2024-01-20T13:47:41.495Z,98776.89
2024-01-20T13:50:11.389Z,98780.94
2024-01-20T13:52:40.295Z,98785.88
2024-01-20T13:55:09.141Z,98790.48
2024-01-20T13:57:38.202Z,98795.95
2024-01-20T14:00:07.415Z,98798.55
2024-01-20T14:02:37.047Z,98799.36
2024-01-20T14:05:06.856Z,98795.84
2024-01-20T14:07:35.644Z,98798.73
2024-01-20T14:10:06.953Z,98801.89
2024-01-20T14:12:37.294Z,98805.67
2024-01-20T14:15:06.756Z,98802.07
2024-01-20T14:17:35.727Z,98803.97
2024-01-20T14:20:04.796Z,98805.06
2024-01-20T14:22:35.188Z,98803.61
2024-01-20T14:25:06.470Z,98801.44
2024-01-20T14:27:35.675Z,98798.33
2024-01-20T14:30:05.624Z,98802.31
2024-01-20T14:32:34.648Z,98805.39
2024-01-20T14:35:04.069Z,98808.77
2024-01-20T14:37:32.524Z,98816.64
2024-01-20T14:40:01.032Z,98815.25
2024-01-20T14:42:30.141Z,98815.65
2024-01-20T14:44:58.708Z,98817.92
2024-01-20T14:47:27.375Z,98821.20
2024-01-20T14:49:56.889Z,98829.85
2024-01-20T14:52:25.529Z,98831.50
2024-01-20T14:54:54.300Z,98832.65
2024-01-20T14:57:22.664Z,98839.89
2024-01-20T14:59:53.182Z,98846.71
2024-01-20T15:02:21.750Z,98853.40
2024-01-20T15:04:50.310Z,98855.31
2024-01-20T15:07:20.007Z,98850.71
2024-01-20T15:09:49.048Z,98853.21
2024-01-20T15:12:17.768Z,98856.48
2024-01-20T15:14:46.269Z,98859.70
2024-01-20T15:17:15.194Z,98860.55
2024-01-20T15:19:43.943Z,98859.16
2024-01-20T15:22:16.416Z,98861.41
2024-01-20T15:24:45.803Z,98867.90
2024-01-20T15:27:14.807Z,98876.17
2024-01-20T15:29:46.561Z,98880.42
2024-01-20T15:32:20.220Z,98879.90
2024-01-20T15:34:50.739Z,98884.86
2024-01-20T15:37:20.352Z,98885.77
2024-01-20T15:39:51.702Z,98890.59
2024-01-20T15:42:22.724Z,98889.65
2024-01-20T15:44:52.695Z,98896.35
2024-01-20T15:47:21.219Z,98894.77
2024-01-20T15:49:49.763Z,98894.14
2024-01-20T15:52:19.065Z,98893.61
2024-01-20T15:54:48.319Z,98896.91
2024-01-20T15:57:16.909Z,98899.16
2024-01-20T15:59:45.329Z,98899.14
2024-01-20T16:02:13.966Z,98901.23
2024-01-20T16:04:42.289Z,98899.41
2024-01-20T16:07:12.409Z,98898.94
2024-01-20T16:09:43.541Z,98898.75
2024-01-20T16:12:12.117Z,98903.05
2024-01-20T16:14:40.685Z,98910.02
2024-01-20T16:17:10.858Z,98910.33
2024-01-20T16:19:39.259Z,98909.69
2024-01-20T16:22:07.835Z,98910.52
2024-01-20T16:24:36.687Z,98908.92
2024-01-20T16:27:05.665Z,98908.00
2024-01-20T16:29:34.260Z,98909.14
2024-01-20T16:32:03.528Z,98907.95
2024-01-20T16:34:32.646Z,98912.27
2024-01-20T16:37:01.381Z,98912.81
2024-01-20T16:39:29.946Z,98909.98
2024-01-20T16:41:58.671Z,98914.56
2024-01-20T16:44:27.425Z,98914.84
2024-01-20T16:46:55.895Z,98913.42
2024-01-20T16:49:25.956Z,98919.58
2024-01-20T16:51:57.867Z,98923.55
2024-01-20T16:54:26.632Z,98925.08
2024-01-20T16:56:56.592Z,98926.33
2024-01-20T16:59:25.608Z,98927.02
2024-01-20T17:01:54.051Z,98928.84
2024-01-20T17:04:22.825Z,98928.21
2024-01-20T17:06:52.168Z,98935.75
2024-01-20T17:09:20.816Z,98935.70
2024-01-20T17:11:49.324Z,98938.36
2024-01-20T17:14:19.526Z,98944.70
2024-01-20T17:16:48.879Z,98946.20
2024-01-20T17:19:20.399Z,98951.34
2024-01-20T17:21:49.033Z,98954.42
2024-01-20T17:24:17.879Z,98957.48
2024-01-20T17:26:46.264Z,98962.35
2024-01-20T17:29:14.586Z,98964.16
2024-01-20T17:31:43.308Z,98968.66
2024-01-20T17:34:13.623Z,98974.73
2024-01-20T17:36:42.087Z,98982.42
2024-01-20T17:39:11.042Z,98983.82
2024-01-20T17:41:41.417Z,98988.14
2024-01-20T17:44:09.920Z,98990.25
2024-01-20T17:46:46.706Z,98994.09
2024-01-20T17:49:16.313Z,98992.52
2024-01-20T17:51:47.207Z,98997.98
2024-01-20T17:54:15.588Z,99001.93
2024-01-20T17:56:44.021Z,99002.01
2024-01-20T17:59:12.413Z,99004.71
2024-01-20T18:01:40.877Z,99008.20
2024-01-20T18:04:09.451Z,99015.30
2024-01-20T18:06:38.158Z,99015.28
2024-01-20T18:09:06.602Z,99018.71
2024-01-20T18:11:35.325Z,99020.93
2024-01-20T18:14:04.232Z,99020.84
2024-01-20T18:16:33.864Z,99018.68
2024-01-20T18:19:02.579Z,99018.77
2024-01-20T18:21:31.567Z,99023.79
2024-01-20T18:24:00.179Z,99023.96
2024-01-20T18:26:28.895Z,99022.20
2024-01-20T18:28:58.916Z,99024.42
2024-01-20T18:31:35.749Z,99029.09
2024-01-20T18:34:34.268Z,99032.83
2024-01-20T18:37:20.702Z,99036.69
2024-01-20T18:40:02.799Z,99041.94
2024-01-20T18:42:33.069Z,99041.30
2024-01-20T18:45:06.632Z,99042.06
2024-01-20T18:47:35.994Z,99051.44
2024-01-20T18:50:07.156Z,99061.48
2024-01-20T18:52:38.310Z,99062.52
2024-01-20T18:55:07.052Z,99060.32
2024-01-20T18:57:36.726Z,99060.86
2024-01-20T19:00:05.992Z,99066.86
2024-01-20T19:02:34.850Z,99069.64
2024-01-20T19:05:15.119Z,99069.86
2024-01-20T19:07:55.563Z,99067.87
2024-01-20T19:10:25.882Z,99066.84
2024-01-20T19:12:55.822Z,99069.83
2024-01-20T19:15:25.777Z,99067.52
2024-01-20T19:17:54.916Z,99073.90
2024-01-20T19:20:25.158Z,99078.49
2024-01-20T19:22:53.806Z,99085.34
2024-01-20T19:25:22.444Z,99085.23
2024-01-20T19:27:53.470Z,99088.33
2024-01-20T19:30:22.445Z,99088.27
2024-01-20T19:32:53.006Z,99086.11
2024-01-20T19:35:23.475Z,99088.67
2024-01-20T19:37:53.810Z,99090.58
2024-01-20T19:40:22.392Z,99088.71
2024-01-20T19:42:51.167Z,99090.92
2024-01-20T19:45:20.071Z,99093.89
2024-01-20T19:47:50.711Z,99097.42
2024-01-20T19:50:23.547Z,99101.98
2024-01-20T19:52:53.326Z,99107.97
2024-01-20T19:55:22.042Z,99110.17
2024-01-20T19:57:50.536Z,99111.84
2024-01-20T20:00:22.806Z,99114.79
2024-01-20T20:02:51.979Z,99110.27
2024-01-20T20:05:21.801Z,99106.61
2024-01-20T20:08:00.235Z,99106.61
2024-01-20T20:10:31.782Z,99109.48
2024-01-20T20:13:00.720Z,99112.56
2024-01-20T20:15:29.437Z,99110.40
2024-01-20T20:17:58.361Z,99112.41
2024-01-20T20:20:27.079Z,99113.90
2024-01-20T20:22:55.622Z,99117.66
2024-01-20T20:25:24.261Z,99118.38
2024-01-20T20:27:53.081Z,99120.91
2024-01-20T20:30:28.195Z,99117.95
2024-01-20T20:32:57.655Z,99118.89
2024-01-20T20:35:26.444Z,99119.51
2024-01-20T20:37:58.269Z,99117.06
2024-01-20T20:40:26.816Z,99117.33
2024-01-20T20:42:55.479Z,99112.40
2024-01-20T20:45:24.179Z,99111.20
2024-01-20T20:47:52.798Z,99109.95
2024-01-20T20:50:21.957Z,99111.19
2024-01-20T20:52:50.407Z,99109.07
2024-01-20T20:55:18.903Z,99107.65
2024-01-20T20:57:47.336Z,99112.20
2024-01-20T21:00:16.763Z,99120.02
2024-01-20T21:02:45.861Z,99123.42
2024-01-20T21:05:17.545Z,99129.96
2024-01-20T21:07:47.650Z,99133.35
2024-01-20T21:10:18.503Z,99129.89
2024-01-20T21:12:47.877Z,99128.98
2024-01-20T21:15:17.054Z,99127.55
2024-01-20T21:17:45.766Z,99131.44
2024-01-20T21:20:14.560Z,99135.20
2024-01-20T21:22:43.886Z,99135.45
2024-01-20T21:25:15.130Z,99134.29
2024-01-20T21:27:43.494Z,99136.61
2024-01-20T21:30:12.435Z,99137.73
2024-01-20T21:32:40.868Z,99144.14
2024-01-20T21:35:09.684Z,99150.11
2024-01-20T21:37:38.162Z,99151.53
2024-01-20T21:40:08.349Z,99152.41
2024-01-20T21:42:37.112Z,99153.13
2024-01-20T21:45:06.246Z,99151.55
2024-01-20T21:47:35.128Z,99155.08
2024-01-20T21:50:04.246Z,99156.02
2024-01-20T21:52:32.847Z,99152.60
2024-01-20T21:55:06.531Z,99158.63
2024-01-20T21:57:37.919Z,99163.82
2024-01-20T22:00:10.209Z,99162.60
2024-01-20T22:02:45.112Z,99162.58
2024-01-20T22:05:13.979Z,99161.72
2024-01-20T22:07:43.080Z,99160.35
2024-01-20T22:10:13.516Z,99158.56
2024-01-20T22:12:42.642Z,99159.41
2024-01-20T22:15:11.338Z,99160.19
2024-01-20T22:17:39.886Z,99156.08
2024-01-20T22:20:09.723Z,99154.46
2024-01-20T22:22:43.382Z,99153.67
2024-01-20T22:25:12.592Z,99151.62
2024-01-20T22:27:41.088Z,99149.73
2024-01-20T22:30:48.094Z,99147.61
2024-01-20T22:33:25.947Z,99146.45
2024-01-20T22:35:54.354Z,99144.39
2024-01-20T22:38:22.969Z,99141.92
2024-01-20T22:40:51.884Z,99144.98
2024-01-20T22:43:20.299Z,99149.33
2024-01-20T22:45:52.372Z,99149.20
2024-01-20T22:48:33.506Z,99146.13
2024-01-20T22:51:05.174Z,99141.06
2024-01-20T22:53:35.699Z,99137.22
2024-01-20T22:56:05.155Z,99134.41
2024-01-20T22:58:35.302Z,99129.88
2024-01-20T23:01:03.836Z,99132.02
2024-01-20T23:03:32.485Z,99133.36
2024-01-20T23:06:01.015Z,99137.05
2024-01-20T23:08:29.381Z,99138.45
2024-01-20T23:11:03.248Z,99135.02
2024-01-20T23:13:31.545Z,99132.83
2024-01-20T23:16:03.608Z,99131.09
2024-01-20T23:18:32.347Z,99130.33
2024-01-20T23:21:00.806Z,99130.73
2024-01-20T23:23:31.545Z,99134.91
2024-01-20T23:26:00.538Z,99137.83
2024-01-20T23:28:28.985Z,99139.25
2024-01-20T23:30:57.286Z,99136.71
2024-01-20T23:33:25.730Z,99134.04
2024-01-20T23:35:54.500Z,99135.64
2024-01-20T23:38:23.659Z,99138.54
2024-01-20T23:40:51.985Z,99141.18
2024-01-20T23:43:23.551Z,99137.70
2024-01-20T23:45:52.819Z,99136.27
2024-01-20T23:48:21.954Z,99134.27
2024-01-20T23:50:50.488Z,99138.33
2024-01-20T23:53:19.108Z,99137.00
2024-01-20T23:55:47.469Z,99134.49
2024-01-20T23:58:16.089Z,99134.45
